sensor_id;sensor_type;location;lat;lon;timestamp;pressure;altitude;pressure_sealevel;temperature;humidity
71105;BME280;58760;48.716;8.962;2022-12-05T00:03:55;96249.94;;;1.92;92.85
71105;BME280;58760;48.716;8.962;2022-12-05T00:06:22;96239.63;;;1.90;93.05
71105;BME280;58760;48.716;8.962;2022-12-05T00:08:48;96244.88;;;1.79;93.33
71105;BME280;58760;48.716;8.962;2022-12-05T00:11:17;96246.19;;;2.05;92.86
71105;BME280;58760;48.716;8.962;2022-12-05T00:13:44;96242.41;;;1.98;92.42
71105;BME280;58760;48.716;8.962;2022-12-05T00:16:11;96242.41;;;2.19;92.88
71105;BME280;58760;48.716;8.962;2022-12-05T00:18:37;96245.44;;;2.15;92.43
71105;BME280;58760;48.716;8.962;2022-12-05T00:21:04;96241.09;;;2.04;92.24
71105;BME280;58760;48.716;8.962;2022-12-05T00:23:30;96229.47;;;1.97;92.97
71105;BME280;58760;48.716;8.962;2022-12-05T00:25:55;96238.16;;;1.97;93.33
71105;BME280;58760;48.716;8.962;2022-12-05T00:28:20;96229.31;;;2.19;92.22
71105;BME280;58760;48.716;8.962;2022-12-05T00:30:46;96234.06;;;2.04;92.52
71105;BME280;58760;48.716;8.962;2022-12-05T00:33:11;96243.31;;;2.08;93.17
71105;BME280;58760;48.716;8.962;2022-12-05T00:35:37;96249.78;;;2.04;93.23
71105;BME280;58760;48.716;8.962;2022-12-05T00:38:02;96262.00;;;2.25;93.29
71105;BME280;58760;48.716;8.962;2022-12-05T00:40:27;96254.59;;;2.09;92.77
71105;BME280;58760;48.716;8.962;2022-12-05T00:42:53;96257.75;;;2.03;92.94
71105;BME280;58760;48.716;8.962;2022-12-05T00:45:18;96261.63;;;2.08;92.61
71105;BME280;58760;48.716;8.962;2022-12-05T00:47:44;96265.06;;;2.09;91.71
71105;BME280;58760;48.716;8.962;2022-12-05T00:50:09;96269.97;;;2.02;92.34
71105;BME280;58760;48.716;8.962;2022-12-05T00:52:34;96266.06;;;2.08;92.24
71105;BME280;58760;48.716;8.962;2022-12-05T00:55:00;96270.88;;;2.13;92.15
71105;BME280;58760;48.716;8.962;2022-12-05T00:57:25;96261.19;;;2.03;92.71
71105;BME280;58760;48.716;8.962;2022-12-05T00:59:50;96267.63;;;1.99;92.87
71105;BME280;58760;48.716;8.962;2022-12-05T01:02:16;96267.69;;;2.09;92.65
71105;BME280;58760;48.716;8.962;2022-12-05T01:04:41;96277.59;;;2.47;91.55
71105;BME280;58760;48.716;8.962;2022-12-05T01:07:07;96273.63;;;2.32;90.99
71105;BME280;58760;48.716;8.962;2022-12-05T01:09:32;96278.88;;;2.11;92.20
71105;BME280;58760;48.716;8.962;2022-12-05T01:11:58;96286.59;;;2.13;92.39
71105;BME280;58760;48.716;8.962;2022-12-05T01:14:24;96290.94;;;2.23;92.42
71105;BME280;58760;48.716;8.962;2022-12-05T01:16:52;96287.53;;;2.11;92.79
71105;BME280;58760;48.716;8.962;2022-12-05T01:19:27;96287.84;;;2.18;93.39
71105;BME280;58760;48.716;8.962;2022-12-05T01:21:53;96292.72;;;2.23;93.31
71105;BME280;58760;48.716;8.962;2022-12-05T01:24:19;96290.03;;;2.13;93.51
71105;BME280;58760;48.716;8.962;2022-12-05T01:26:46;96291.06;;;2.01;93.70
71105;BME280;58760;48.716;8.962;2022-12-05T01:29:13;96286.72;;;2.11;94.20
71105;BME280;58760;48.716;8.962;2022-12-05T01:31:39;96276.31;;;2.00;94.47
71105;BME280;58760;48.716;8.962;2022-12-05T01:34:06;96276.69;;;1.95;94.80
71105;BME280;58760;48.716;8.962;2022-12-05T01:36:32;96282.41;;;1.89;95.33
71105;BME280;58760;48.716;8.962;2022-12-05T01:38:58;96294.28;;;1.93;95.50
71105;BME280;58760;48.716;8.962;2022-12-05T01:41:27;96294.88;;;1.97;95.42
71105;BME280;58760;48.716;8.962;2022-12-05T01:46:25;96314.97;;;1.96;95.82
71105;BME280;58760;48.716;8.962;2022-12-05T01:48:54;96325.19;;;1.99;95.43
71105;BME280;58760;48.716;8.962;2022-12-05T01:51:20;96324.94;;;2.02;95.57
71105;BME280;58760;48.716;8.962;2022-12-05T01:53:46;96325.16;;;2.10;94.69
71105;BME280;58760;48.716;8.962;2022-12-05T01:56:12;96316.13;;;2.03;94.76
71105;BME280;58760;48.716;8.962;2022-12-05T01:58:38;96315.63;;;2.09;94.64
71105;BME280;58760;48.716;8.962;2022-12-05T02:01:04;96309.22;;;2.02;95.10
71105;BME280;58760;48.716;8.962;2022-12-05T02:03:30;96314.47;;;2.02;95.36
71105;BME280;58760;48.716;8.962;2022-12-05T02:05:56;96317.09;;;2.23;94.66
71105;BME280;58760;48.716;8.962;2022-12-05T02:08:23;96327.03;;;2.08;94.88
71105;BME280;58760;48.716;8.962;2022-12-05T02:10:50;96336.81;;;2.06;95.27
71105;BME280;58760;48.716;8.962;2022-12-05T02:19:10;96347.34;;;2.16;95.37
71105;BME280;58760;48.716;8.962;2022-12-05T02:29:53;96356.22;;;2.04;95.59
71105;BME280;58760;48.716;8.962;2022-12-05T02:32:33;96364.22;;;2.23;95.37
71105;BME280;58760;48.716;8.962;2022-12-05T02:35:33;96366.00;;;2.23;95.09
71105;BME280;58760;48.716;8.962;2022-12-05T02:38:29;96371.19;;;2.34;94.39
71105;BME280;58760;48.716;8.962;2022-12-05T02:43:40;96366.13;;;2.21;95.37
71105;BME280;58760;48.716;8.962;2022-12-05T02:46:13;96367.19;;;2.19;95.63
71105;BME280;58760;48.716;8.962;2022-12-05T02:48:44;96368.25;;;2.27;95.38
71105;BME280;58760;48.716;8.962;2022-12-05T02:51:14;96366.38;;;2.18;95.18
71105;BME280;58760;48.716;8.962;2022-12-05T02:53:42;96369.38;;;2.14;96.24
71105;BME280;58760;48.716;8.962;2022-12-05T02:56:09;96371.94;;;2.25;96.08
71105;BME280;58760;48.716;8.962;2022-12-05T02:58:43;96367.19;;;2.19;96.03
71105;BME280;58760;48.716;8.962;2022-12-05T03:01:09;96350.81;;;2.17;96.19
71105;BME280;58760;48.716;8.962;2022-12-05T03:03:35;96347.25;;;2.18;96.23
71105;BME280;58760;48.716;8.962;2022-12-05T03:06:21;96344.63;;;2.18;96.50
71105;BME280;58760;48.716;8.962;2022-12-05T03:09:05;96345.00;;;2.13;96.92
71105;BME280;58760;48.716;8.962;2022-12-05T03:11:45;96339.66;;;2.15;97.52
71105;BME280;58760;48.716;8.962;2022-12-05T03:14:23;96337.22;;;2.23;97.02
71105;BME280;58760;48.716;8.962;2022-12-05T03:16:52;96330.56;;;2.19;97.40
71105;BME280;58760;48.716;8.962;2022-12-05T03:19:36;96335.69;;;2.20;97.68
71105;BME280;58760;48.716;8.962;2022-12-05T03:22:10;96346.59;;;2.25;97.81
71105;BME280;58760;48.716;8.962;2022-12-05T03:24:40;96345.66;;;2.26;97.66
71105;BME280;58760;48.716;8.962;2022-12-05T03:29:54;96356.22;;;2.25;97.36
71105;BME280;58760;48.716;8.962;2022-12-05T03:38:18;96360.00;;;2.32;97.43
71105;BME280;58760;48.716;8.962;2022-12-05T03:40:52;96343.78;;;2.38;97.56
71105;BME280;58760;48.716;8.962;2022-12-05T03:43:56;96339.78;;;2.34;97.49
71105;BME280;58760;48.716;8.962;2022-12-05T03:46:17;96339.78;;;2.34;97.57
71105;BME280;58760;48.716;8.962;2022-12-05T03:51:45;96340.38;;;2.37;97.57
71105;BME280;58760;48.716;8.962;2022-12-05T03:54:15;96330.50;;;2.50;97.30
71105;BME280;58760;48.716;8.962;2022-12-05T03:56:48;96336.75;;;2.38;96.75
71105;BME280;58760;48.716;8.962;2022-12-05T03:59:38;96341.88;;;2.40;96.73
71105;BME280;58760;48.716;8.962;2022-12-05T04:02:11;96347.56;;;2.45;96.86
71105;BME280;58760;48.716;8.962;2022-12-05T04:04:46;96343.78;;;2.38;96.97
71105;BME280;58760;48.716;8.962;2022-12-05T04:07:14;96332.38;;;2.39;97.23
71105;BME280;58760;48.716;8.962;2022-12-05T04:09:47;96334.16;;;2.59;96.28
71105;BME280;58760;48.716;8.962;2022-12-05T04:12:25;96339.91;;;2.53;95.96
71105;BME280;58760;48.716;8.962;2022-12-05T04:15:05;96347.00;;;2.62;95.37
71105;BME280;58760;48.716;8.962;2022-12-05T04:18:02;96346.16;;;2.61;95.62
71105;BME280;58760;48.716;8.962;2022-12-05T04:20:40;96359.41;;;2.60;95.38
71105;BME280;58760;48.716;8.962;2022-12-05T04:23:35;96365.50;;;2.70;95.69
71105;BME280;58760;48.716;8.962;2022-12-05T04:28:38;96354.59;;;2.65;95.28
71105;BME280;58760;48.716;8.962;2022-12-05T04:33:56;96353.22;;;2.71;95.44
71105;BME280;58760;48.716;8.962;2022-12-05T04:39:25;96354.47;;;2.46;95.87
71105;BME280;58760;48.716;8.962;2022-12-05T04:42:06;96353.69;;;2.55;96.16
71105;BME280;58760;48.716;8.962;2022-12-05T04:44:48;96359.97;;;2.43;96.36
71105;BME280;58760;48.716;8.962;2022-12-05T04:47:16;96375.34;;;2.36;96.72
71105;BME280;58760;48.716;8.962;2022-12-05T04:49:44;96361.38;;;2.47;97.27
71105;BME280;58760;48.716;8.962;2022-12-05T04:52:10;96376.88;;;2.39;97.16
71105;BME280;58760;48.716;8.962;2022-12-05T04:54:43;96374.88;;;2.31;97.42
71105;BME280;58760;48.716;8.962;2022-12-05T04:57:20;96382.03;;;2.29;97.98
71105;BME280;58760;48.716;8.962;2022-12-05T04:59:46;96385.88;;;2.46;98.10
71105;BME280;58760;48.716;8.962;2022-12-05T05:02:14;96391.88;;;2.37;97.62
71105;BME280;58760;48.716;8.962;2022-12-05T05:04:47;96394.00;;;2.43;97.57
71105;BME280;58760;48.716;8.962;2022-12-05T05:07:15;96392.59;;;2.39;97.87
71105;BME280;58760;48.716;8.962;2022-12-05T05:09:41;96387.22;;;2.40;98.16
71105;BME280;58760;48.716;8.962;2022-12-05T05:12:07;96383.88;;;2.38;98.18
71105;BME280;58760;48.716;8.962;2022-12-05T05:14:32;96386.97;;;2.43;98.48
71105;BME280;58760;48.716;8.962;2022-12-05T05:16:58;96391.38;;;2.43;98.46
71105;BME280;58760;48.716;8.962;2022-12-05T05:19:24;96391.13;;;2.46;98.50
71105;BME280;58760;48.716;8.962;2022-12-05T05:21:50;96395.00;;;2.51;98.37
71105;BME280;58760;48.716;8.962;2022-12-05T05:24:15;96398.34;;;2.53;98.36
71105;BME280;58760;48.716;8.962;2022-12-05T05:26:43;96407.00;;;2.54;98.00
71105;BME280;58760;48.716;8.962;2022-12-05T05:29:10;96404.53;;;2.52;98.19
71105;BME280;58760;48.716;8.962;2022-12-05T05:31:36;96412.31;;;2.63;97.94
71105;BME280;58760;48.716;8.962;2022-12-05T05:34:02;96408.91;;;2.63;97.58
71105;BME280;58760;48.716;8.962;2022-12-05T05:36:27;96410.66;;;2.42;96.67
71105;BME280;58760;48.716;8.962;2022-12-05T05:38:55;96416.19;;;2.28;95.59
71105;BME280;58760;48.716;8.962;2022-12-05T05:41:23;96418.38;;;2.11;94.88
71105;BME280;58760;48.716;8.962;2022-12-05T05:43:50;96428.75;;;2.02;94.85
71105;BME280;58760;48.716;8.962;2022-12-05T05:46:20;96431.16;;;1.94;94.11
71105;BME280;58760;48.716;8.962;2022-12-05T05:48:47;96430.09;;;1.96;95.12
71105;BME280;58760;48.716;8.962;2022-12-05T05:51:13;96438.63;;;2.09;95.23
71105;BME280;58760;48.716;8.962;2022-12-05T05:53:39;96444.09;;;1.95;94.76
71105;BME280;58760;48.716;8.962;2022-12-05T05:56:07;96434.97;;;1.90;94.89
71105;BME280;58760;48.716;8.962;2022-12-05T05:58:33;96430.56;;;1.90;94.06
71105;BME280;58760;48.716;8.962;2022-12-05T06:01:06;96425.69;;;1.97;92.99
71105;BME280;58760;48.716;8.962;2022-12-05T06:03:32;96421.25;;;2.08;95.53
71105;BME280;58760;48.716;8.962;2022-12-05T06:05:59;96411.00;;;2.17;96.61
71105;BME280;58760;48.716;8.962;2022-12-05T06:08:29;96413.69;;;2.26;97.49
71105;BME280;58760;48.716;8.962;2022-12-05T06:10:54;96418.78;;;2.28;97.87
71105;BME280;58760;48.716;8.962;2022-12-05T06:13:19;96427.38;;;2.30;98.05
71105;BME280;58760;48.716;8.962;2022-12-05T06:15:45;96429.03;;;2.31;98.18
71105;BME280;58760;48.716;8.962;2022-12-05T06:18:10;96421.88;;;2.33;98.39
71105;BME280;58760;48.716;8.962;2022-12-05T06:20:36;96422.56;;;2.35;98.52
71105;BME280;58760;48.716;8.962;2022-12-05T06:23:01;96438.03;;;2.38;98.76
71105;BME280;58760;48.716;8.962;2022-12-05T06:25:26;96451.69;;;2.52;97.76
71105;BME280;58760;48.716;8.962;2022-12-05T06:27:52;96458.19;;;2.58;96.53
71105;BME280;58760;48.716;8.962;2022-12-05T06:30:17;96458.13;;;2.48;96.75
71105;BME280;58760;48.716;8.962;2022-12-05T06:32:42;96463.75;;;2.44;97.04
71105;BME280;58760;48.716;8.962;2022-12-05T06:35:08;96480.25;;;2.44;97.42
71105;BME280;58760;48.716;8.962;2022-12-05T06:37:43;96475.75;;;2.46;97.77
71105;BME280;58760;48.716;8.962;2022-12-05T06:40:12;96473.13;;;2.46;97.82
71105;BME280;58760;48.716;8.962;2022-12-05T06:42:37;96478.22;;;2.48;96.95
71105;BME280;58760;48.716;8.962;2022-12-05T06:45:04;96481.25;;;2.43;97.37
71105;BME280;58760;48.716;8.962;2022-12-05T06:47:29;96476.41;;;2.59;96.77
71105;BME280;58760;48.716;8.962;2022-12-05T06:49:55;96483.88;;;2.64;96.27
71105;BME280;58760;48.716;8.962;2022-12-05T06:52:20;96482.50;;;2.60;96.47
71105;BME280;58760;48.716;8.962;2022-12-05T06:54:46;96478.38;;;2.67;96.56
71105;BME280;58760;48.716;8.962;2022-12-05T06:57:11;96466.78;;;2.60;96.71
71105;BME280;58760;48.716;8.962;2022-12-05T06:59:37;96477.25;;;2.60;97.02
71105;BME280;58760;48.716;8.962;2022-12-05T07:02:02;96479.88;;;2.60;97.10
71105;BME280;58760;48.716;8.962;2022-12-05T07:04:31;96485.81;;;2.62;97.42
71105;BME280;58760;48.716;8.962;2022-12-05T07:06:56;96483.28;;;2.60;97.55
71105;BME280;58760;48.716;8.962;2022-12-05T07:09:24;96485.31;;;2.57;97.51
71105;BME280;58760;48.716;8.962;2022-12-05T07:12:11;96491.53;;;2.56;97.68
71105;BME280;58760;48.716;8.962;2022-12-05T07:14:36;96487.72;;;2.60;98.00
71105;BME280;58760;48.716;8.962;2022-12-05T07:17:02;96499.91;;;2.71;97.97
71105;BME280;58760;48.716;8.962;2022-12-05T07:19:27;96505.31;;;2.69;97.40
71105;BME280;58760;48.716;8.962;2022-12-05T07:21:53;96509.56;;;2.70;97.46
71105;BME280;58760;48.716;8.962;2022-12-05T07:24:18;96507.53;;;2.74;97.22
71105;BME280;58760;48.716;8.962;2022-12-05T07:26:43;96515.13;;;2.77;97.34
71105;BME280;58760;48.716;8.962;2022-12-05T07:29:09;96508.84;;;2.79;97.06
71105;BME280;58760;48.716;8.962;2022-12-05T07:31:34;96512.03;;;2.83;97.25
71105;BME280;58760;48.716;8.962;2022-12-05T07:34:01;96508.06;;;2.88;97.36
71105;BME280;58760;48.716;8.962;2022-12-05T07:36:26;96509.53;;;2.81;96.73
71105;BME280;58760;48.716;8.962;2022-12-05T07:38:56;96503.28;;;2.73;95.40
71105;BME280;58760;48.716;8.962;2022-12-05T07:41:29;96492.66;;;2.74;95.40
71105;BME280;58760;48.716;8.962;2022-12-05T07:43:56;96493.81;;;2.81;95.26
71105;BME280;58760;48.716;8.962;2022-12-05T07:46:23;96495.81;;;2.57;92.92
71105;BME280;58760;48.716;8.962;2022-12-05T07:48:49;96510.28;;;2.40;92.36
71105;BME280;58760;48.716;8.962;2022-12-05T07:51:16;96514.78;;;2.49;93.20
71105;BME280;58760;48.716;8.962;2022-12-05T07:53:42;96513.03;;;2.28;92.10
71105;BME280;58760;48.716;8.962;2022-12-05T07:56:10;96522.56;;;2.29;92.03
71105;BME280;58760;48.716;8.962;2022-12-05T07:58:36;96527.97;;;2.59;94.17
71105;BME280;58760;48.716;8.962;2022-12-05T08:01:07;96533.44;;;2.88;94.91
71105;BME280;58760;48.716;8.962;2022-12-05T08:03:33;96528.84;;;3.01;95.06
71105;BME280;58760;48.716;8.962;2022-12-05T08:06:12;96527.19;;;3.00;94.47
71105;BME280;58760;48.716;8.962;2022-12-05T08:08:38;96530.72;;;3.10;94.09
71105;BME280;58760;48.716;8.962;2022-12-05T08:11:15;96514.59;;;3.35;93.28
71105;BME280;58760;48.716;8.962;2022-12-05T08:13:41;96526.94;;;3.44;91.39
71105;BME280;58760;48.716;8.962;2022-12-05T08:16:09;96518.50;;;3.41;91.95
71105;BME280;58760;48.716;8.962;2022-12-05T08:18:35;96526.94;;;3.44;92.26
71105;BME280;58760;48.716;8.962;2022-12-05T08:21:16;96532.78;;;3.48;91.82
71105;BME280;58760;48.716;8.962;2022-12-05T08:23:42;96538.19;;;3.56;92.48
71105;BME280;58760;48.716;8.962;2022-12-05T08:26:13;96540.81;;;3.56;92.97
71105;BME280;58760;48.716;8.962;2022-12-05T08:28:40;96545.63;;;3.81;91.45
71105;BME280;58760;48.716;8.962;2022-12-05T08:31:17;96549.66;;;3.85;91.37
71105;BME280;58760;48.716;8.962;2022-12-05T08:33:44;96551.09;;;3.68;91.60
71105;BME280;58760;48.716;8.962;2022-12-05T08:36:13;96551.94;;;3.69;93.00
71105;BME280;58760;48.716;8.962;2022-12-05T08:38:40;96556.91;;;3.72;93.17
71105;BME280;58760;48.716;8.962;2022-12-05T08:41:09;96560.72;;;3.89;93.26
71105;BME280;58760;48.716;8.962;2022-12-05T08:43:35;96562.56;;;3.98;92.06
71105;BME280;58760;48.716;8.962;2022-12-05T08:46:01;96567.50;;;3.91;92.12
71105;BME280;58760;48.716;8.962;2022-12-05T08:48:28;96569.53;;;4.08;90.96
71105;BME280;58760;48.716;8.962;2022-12-05T08:50:54;96566.63;;;4.11;90.67
71105;BME280;58760;48.716;8.962;2022-12-05T08:53:19;96562.63;;;4.17;90.34
71105;BME280;58760;48.716;8.962;2022-12-05T08:55:45;96564.31;;;4.18;90.50
71105;BME280;58760;48.716;8.962;2022-12-05T08:58:11;96559.94;;;4.38;89.70
71105;BME280;58760;48.716;8.962;2022-12-05T09:00:37;96566.56;;;4.32;89.64
71105;BME280;58760;48.716;8.962;2022-12-05T09:03:02;96575.19;;;4.53;88.43
71105;BME280;58760;48.716;8.962;2022-12-05T09:05:28;96575.44;;;4.41;88.99
71105;BME280;58760;48.716;8.962;2022-12-05T09:07:53;96572.94;;;4.39;89.64
71105;BME280;58760;48.716;8.962;2022-12-05T09:10:19;96581.53;;;4.41;88.43
71105;BME280;58760;48.716;8.962;2022-12-05T09:12:44;96585.09;;;4.40;88.44
71105;BME280;58760;48.716;8.962;2022-12-05T09:15:10;96583.06;;;4.44;88.84
71105;BME280;58760;48.716;8.962;2022-12-05T09:17:37;96582.38;;;4.42;88.90
71105;BME280;58760;48.716;8.962;2022-12-05T09:20:06;96589.56;;;4.59;88.37
71105;BME280;58760;48.716;8.962;2022-12-05T09:22:33;96597.63;;;4.57;88.92
71105;BME280;58760;48.716;8.962;2022-12-05T09:24:58;96602.63;;;4.80;88.00
71105;BME280;58760;48.716;8.962;2022-12-05T09:27:27;96602.06;;;4.76;87.43
71105;BME280;58760;48.716;8.962;2022-12-05T09:29:52;96602.88;;;4.67;88.18
71105;BME280;58760;48.716;8.962;2022-12-05T09:32:17;96605.69;;;4.85;87.59
71105;BME280;58760;48.716;8.962;2022-12-05T09:34:43;96611.72;;;4.66;87.06
71105;BME280;58760;48.716;8.962;2022-12-05T09:37:08;96617.38;;;4.52;86.88
71105;BME280;58760;48.716;8.962;2022-12-05T09:39:34;96607.19;;;4.68;85.60
71105;BME280;58760;48.716;8.962;2022-12-05T09:42:26;96610.59;;;4.59;86.84
71105;BME280;58760;48.716;8.962;2022-12-05T09:45:27;96613.69;;;4.64;86.53
71105;BME280;58760;48.716;8.962;2022-12-05T09:48:04;96616.00;;;4.57;86.79
71105;BME280;58760;48.716;8.962;2022-12-05T09:50:34;96632.59;;;4.58;87.47
71105;BME280;58760;48.716;8.962;2022-12-05T09:53:18;96625.81;;;4.65;86.34
71105;BME280;58760;48.716;8.962;2022-12-05T09:56:05;96613.69;;;4.64;86.07
71105;BME280;58760;48.716;8.962;2022-12-05T09:58:52;96628.00;;;4.50;86.28
71105;BME280;58760;48.716;8.962;2022-12-05T10:04:54;96627.13;;;4.40;87.09
71105;BME280;58760;48.716;8.962;2022-12-05T10:07:43;96625.31;;;4.31;88.55
71105;BME280;58760;48.716;8.962;2022-12-05T10:16:02;96620.31;;;4.58;88.95
71105;BME280;58760;48.716;8.962;2022-12-05T10:18:43;96618.63;;;4.57;88.57
71105;BME280;58760;48.716;8.962;2022-12-05T10:21:24;96619.50;;;4.67;88.49
71105;BME280;58760;48.716;8.962;2022-12-05T10:23:58;96612.88;;;4.83;88.78
71105;BME280;58760;48.716;8.962;2022-12-05T10:26:31;96610.94;;;4.85;88.93
71105;BME280;58760;48.716;8.962;2022-12-05T10:31:47;96610.69;;;4.97;88.39
71105;BME280;58760;48.716;8.962;2022-12-05T10:34:20;96616.25;;;5.23;86.60
71105;BME280;58760;48.716;8.962;2022-12-05T10:36:59;96606.56;;;5.33;86.76
71105;BME280;58760;48.716;8.962;2022-12-05T10:39:26;96602.81;;;5.55;85.67
71105;BME280;58760;48.716;8.962;2022-12-05T10:41:52;96589.47;;;5.75;83.76
71105;BME280;58760;48.716;8.962;2022-12-05T10:44:18;96589.72;;;5.82;83.08
71105;BME280;58760;48.716;8.962;2022-12-05T10:46:44;96589.88;;;5.90;82.98
71105;BME280;58760;48.716;8.962;2022-12-05T10:49:10;96589.31;;;5.96;81.18
71105;BME280;58760;48.716;8.962;2022-12-05T10:51:36;96594.75;;;5.95;82.42
71105;BME280;58760;48.716;8.962;2022-12-05T10:54:14;96599.31;;;5.93;81.90
71105;BME280;58760;48.716;8.962;2022-12-05T10:56:44;96589.69;;;6.11;81.36
71105;BME280;58760;48.716;8.962;2022-12-05T10:59:21;96595.50;;;6.05;81.76
71105;BME280;58760;48.716;8.962;2022-12-05T11:01:49;96597.63;;;6.01;81.10
71105;BME280;58760;48.716;8.962;2022-12-05T11:04:21;96590.50;;;6.11;81.44
71105;BME280;58760;48.716;8.962;2022-12-05T11:06:53;96593.63;;;5.97;80.67
71105;BME280;58760;48.716;8.962;2022-12-05T11:09:24;96602.88;;;5.82;81.56
71105;BME280;58760;48.716;8.962;2022-12-05T11:12:35;96584.06;;;5.87;79.68
71105;BME280;58760;48.716;8.962;2022-12-05T11:15:06;96588.63;;;5.85;79.81
71105;BME280;58760;48.716;8.962;2022-12-05T11:17:45;96584.19;;;5.85;79.72
71105;BME280;58760;48.716;8.962;2022-12-05T11:22:41;96580.03;;;5.92;79.65
71105;BME280;58760;48.716;8.962;2022-12-05T11:27:49;96558.84;;;6.30;78.54
71105;BME280;58760;48.716;8.962;2022-12-05T11:30:21;96566.94;;;6.47;77.16
71105;BME280;58760;48.716;8.962;2022-12-05T11:32:47;96567.47;;;6.50;77.99
71105;BME280;58760;48.716;8.962;2022-12-05T11:35:24;96569.47;;;6.66;77.56
71105;BME280;58760;48.716;8.962;2022-12-05T11:37:59;96571.44;;;6.81;77.54
71105;BME280;58760;48.716;8.962;2022-12-05T11:48:52;96580.31;;;6.80;75.83
71105;BME280;58760;48.716;8.962;2022-12-05T11:51:58;96586.75;;;6.78;75.57
71105;BME280;58760;48.716;8.962;2022-12-05T11:57:14;96578.78;;;7.05;74.94
71105;BME280;58760;48.716;8.962;2022-12-05T12:00:04;96574.03;;;7.26;74.09
71105;BME280;58760;48.716;8.962;2022-12-05T12:02:58;96580.38;;;7.33;73.45
71105;BME280;58760;48.716;8.962;2022-12-05T12:05:40;96573.66;;;7.21;72.68
71105;BME280;58760;48.716;8.962;2022-12-05T12:08:20;96566.41;;;7.23;73.34
71105;BME280;58760;48.716;8.962;2022-12-05T12:35:50;96550.50;;;8.28;67.24
71105;BME280;58760;48.716;8.962;2022-12-05T12:40:55;96559.56;;;7.74;67.37
71105;BME280;58760;48.716;8.962;2022-12-05T12:44:42;96565.03;;;7.55;68.41
71105;BME280;58760;48.716;8.962;2022-12-05T12:51:55;96569.16;;;7.31;69.41
71105;BME280;58760;48.716;8.962;2022-12-05T12:54:38;96560.78;;;7.18;68.86
71105;BME280;58760;48.716;8.962;2022-12-05T13:02:14;96577.84;;;6.79;70.55
71105;BME280;58760;48.716;8.962;2022-12-05T13:04:52;96574.16;;;6.72;70.79
71105;BME280;58760;48.716;8.962;2022-12-05T13:07:29;96577.13;;;6.59;70.34
71105;BME280;58760;48.716;8.962;2022-12-05T13:10:03;96572.06;;;6.48;72.38
71105;BME280;58760;48.716;8.962;2022-12-05T13:12:34;96566.06;;;6.56;73.46
71105;BME280;58760;48.716;8.962;2022-12-05T13:15:07;96571.31;;;6.56;73.55
71105;BME280;58760;48.716;8.962;2022-12-05T13:17:37;96565.75;;;6.59;72.19
71105;BME280;58760;48.716;8.962;2022-12-05T13:20:15;96571.03;;;6.59;72.71
71105;BME280;58760;48.716;8.962;2022-12-05T13:22:41;96574.56;;;6.67;71.86
71105;BME280;58760;48.716;8.962;2022-12-05T13:25:16;96569.81;;;6.98;70.82
71105;BME280;58760;48.716;8.962;2022-12-05T13:27:56;96561.88;;;7.33;69.35
71105;BME280;58760;48.716;8.962;2022-12-05T13:30:23;96562.34;;;7.47;69.26
71105;BME280;58760;48.716;8.962;2022-12-05T13:32:56;96558.41;;;7.33;69.23
71105;BME280;58760;48.716;8.962;2022-12-05T13:35:34;96561.06;;;7.33;69.38
71105;BME280;58760;48.716;8.962;2022-12-05T13:38:29;96572.44;;;7.33;72.14
71105;BME280;58760;48.716;8.962;2022-12-05T13:41:14;96571.91;;;7.48;71.08
71105;BME280;58760;48.716;8.962;2022-12-05T13:43:59;96564.84;;;7.30;68.88
71105;BME280;58760;48.716;8.962;2022-12-05T13:46:29;96574.69;;;7.28;69.80
71105;BME280;58760;48.716;8.962;2022-12-05T13:49:17;96580.59;;;7.05;70.93
71105;BME280;58760;48.716;8.962;2022-12-05T13:51:48;96578.03;;;6.95;72.26
71105;BME280;58760;48.716;8.962;2022-12-05T13:54:18;96577.56;;;6.82;71.69
71105;BME280;58760;48.716;8.962;2022-12-05T13:59:59;96581.56;;;6.59;72.63
71105;BME280;58760;48.716;8.962;2022-12-05T14:07:46;96589.09;;;6.26;73.38
71105;BME280;58760;48.716;8.962;2022-12-05T14:10:14;96595.91;;;6.19;74.14
71105;BME280;58760;48.716;8.962;2022-12-05T14:12:56;96598.25;;;6.22;74.25
71105;BME280;58760;48.716;8.962;2022-12-05T14:18:13;96601.97;;;6.29;73.74
71105;BME280;58760;48.716;8.962;2022-12-05T14:29:31;96592.09;;;6.31;70.62
71105;BME280;58760;48.716;8.962;2022-12-05T14:32:29;96604.91;;;6.26;71.34
71105;BME280;58760;48.716;8.962;2022-12-05T14:34:56;96603.69;;;6.11;73.23
71105;BME280;58760;48.716;8.962;2022-12-05T14:37:29;96599.16;;;6.04;72.63
71105;BME280;58760;48.716;8.962;2022-12-05T14:39:59;96610.13;;;5.90;71.20
71105;BME280;58760;48.716;8.962;2022-12-05T14:42:39;96617.47;;;5.86;72.07
71105;BME280;58760;48.716;8.962;2022-12-05T14:45:35;96613.31;;;5.74;73.32
71105;BME280;58760;48.716;8.962;2022-12-05T14:50:48;96613.06;;;5.58;73.62
71105;BME280;58760;48.716;8.962;2022-12-05T14:55:48;96608.06;;;5.64;73.82
71105;BME280;58760;48.716;8.962;2022-12-05T14:58:18;96612.63;;;5.53;76.12
71105;BME280;58760;48.716;8.962;2022-12-05T15:00:52;96606.97;;;5.28;75.46
71105;BME280;58760;48.716;8.962;2022-12-05T15:03:23;96608.09;;;5.16;75.70
71105;BME280;58760;48.716;8.962;2022-12-05T15:05:49;96613.06;;;5.19;76.52
71105;BME280;58760;48.716;8.962;2022-12-05T15:08:15;96611.28;;;5.39;75.38
71105;BME280;58760;48.716;8.962;2022-12-05T15:10:42;96609.19;;;5.23;76.00
71105;BME280;58760;48.716;8.962;2022-12-05T15:13:20;96606.97;;;5.28;75.37
71105;BME280;58760;48.716;8.962;2022-12-05T15:15:59;96598.25;;;5.28;75.30
71105;BME280;58760;48.716;8.962;2022-12-05T15:21:18;96612.50;;;5.06;77.21
71105;BME280;58760;48.716;8.962;2022-12-05T15:29:11;96601.28;;;5.04;77.81
71105;BME280;58760;48.716;8.962;2022-12-05T15:32:03;96600.75;;;5.10;77.53
71105;BME280;58760;48.716;8.962;2022-12-05T15:34:58;96602.81;;;5.07;77.83
71105;BME280;58760;48.716;8.962;2022-12-05T15:37:31;96600.03;;;4.99;78.05
71105;BME280;58760;48.716;8.962;2022-12-05T15:42:39;96602.94;;;4.96;78.87
71105;BME280;58760;48.716;8.962;2022-12-05T15:47:47;96603.06;;;4.94;79.49
71105;BME280;58760;48.716;8.962;2022-12-05T15:50:32;96614.34;;;4.66;79.78
71105;BME280;58760;48.716;8.962;2022-12-05T15:53:04;96621.56;;;4.64;80.28
71105;BME280;58760;48.716;8.962;2022-12-05T15:55:35;96627.78;;;4.72;79.72
71105;BME280;58760;48.716;8.962;2022-12-05T15:58:13;96630.97;;;4.76;80.46